Time;durP1;ratioP1;P1;durP2;ratioP2;P2;SDS_P1;SDS_P2;PMS_P1;PMS_P2;Temp;Humidity;BMP_temperature;BMP_pressure;BME280_temperature;BME280_humidity;BME280_pressure;Samples;Min_cycle;Max_cycle;Signal;HPM_P1;HPM_P2
2022/12/26 00:01:47;;;;;;;3.22;2.08;;;;;;;14.07;51.90;93428.34;4967904;28;20038;-88
2022/12/26 00:04:12;;;;;;;2.80;1.77;;;;;;;14.06;51.94;93432.31;4967417;28;20117;-89
2022/12/26 00:06:37;;;;;;;3.88;1.80;;;;;;;14.10;52.24;93431.34;4949417;28;20441;-88
2022/12/26 00:09:03;;;;;;;1.80;1.40;;;;;;;14.08;51.92;93432.56;4983911;28;20851;-86
2022/12/26 00:11:29;;;;;;;2.88;1.70;;;;;;;14.07;51.70;93430.34;4936278;28;20043;-89
2022/12/26 00:14:03;;;;;;;1.98;1.77;;;;;;;14.10;51.96;93439.50;4951985;28;20074;-88
2022/12/26 00:16:28;;;;;;;2.08;1.70;;;;;;;14.08;51.65;93445.41;4947514;28;20066;-89
2022/12/26 00:18:53;;;;;;;2.42;1.83;;;;;;;14.06;52.19;93439.72;4974366;28;20039;-89
2022/12/26 00:21:20;;;;;;;2.42;1.60;;;;;;;14.07;51.76;93444.66;4970684;28;20093;-89
2022/12/26 00:23:46;;;;;;;2.80;1.88;;;;;;;14.09;51.90;93444.19;4951701;28;20098;-87
2022/12/26 00:26:14;;;;;;;2.38;1.58;;;;;;;14.10;51.95;93455.78;4971153;28;20137;-89
2022/12/26 00:28:39;;;;;;;3.42;1.98;;;;;;;14.07;51.55;93447.38;4955285;28;20047;-90
2022/12/26 00:31:06;;;;;;;2.78;1.98;;;;;;;14.07;51.97;93455.53;4955086;28;20508;-87
2022/12/26 00:33:33;;;;;;;2.28;1.55;;;;;;;14.08;51.85;93470.63;4957515;28;20259;-89
2022/12/26 00:36:07;;;;;;;2.10;1.90;;;;;;;14.07;51.93;93465.69;4952454;28;20537;-86
2022/12/26 00:38:35;;;;;;;2.25;1.70;;;;;;;14.05;52.09;93457.25;4970837;28;20045;-86
2022/12/26 00:41:01;;;;;;;2.50;1.77;;;;;;;14.06;51.89;93458.75;4939403;28;20043;-88
2022/12/26 00:43:26;;;;;;;2.22;1.73;;;;;;;14.04;52.08;93466.63;4939049;28;20069;-89
2022/12/26 00:45:52;;;;;;;2.65;1.77;;;;;;;14.03;51.96;93462.44;4935601;29;20115;-87
2022/12/26 00:48:17;;;;;;;2.33;1.90;;;;;;;14.06;51.81;93461.47;4986662;28;20464;-89
2022/12/26 00:50:43;;;;;;;3.05;1.70;;;;;;;14.07;51.96;93466.41;4952160;28;20334;-88
2022/12/26 00:53:08;;;;;;;3.78;2.00;;;;;;;14.05;51.42;93463.44;4966782;28;20081;-89
2022/12/26 00:55:33;;;;;;;2.20;1.90;;;;;;;14.04;51.68;93467.38;4935966;29;20042;-88
2022/12/26 00:57:59;;;;;;;2.33;1.65;;;;;;;14.06;52.00;93469.63;4971595;28;20047;-88
2022/12/26 01:00:24;;;;;;;2.83;1.95;;;;;;;14.07;52.08;93473.84;4970596;28;20484;-88
2022/12/26 01:02:50;;;;;;;2.17;1.85;;;;;;;14.08;51.87;93478.03;4951599;29;20043;-86
2022/12/26 01:05:15;;;;;;;4.20;1.85;;;;;;;14.07;51.69;93476.56;4967453;28;20123;-89
2022/12/26 01:07:40;;;;;;;2.58;1.92;;;;;;;14.07;51.73;93485.44;4935743;29;20043;-88
2022/12/26 01:10:07;;;;;;;3.30;1.70;;;;;;;14.10;52.05;93478.28;4969830;28;20054;-87
2022/12/26 01:12:32;;;;;;;3.03;1.70;;;;;;;14.08;51.89;93472.59;4954913;28;20042;-89
2022/12/26 01:14:58;;;;;;;3.00;2.05;;;;;;;14.08;52.08;93480.75;4951478;29;20046;-88
2022/12/26 01:17:23;;;;;;;2.08;1.75;;;;;;;14.06;52.02;93477.78;4986600;28;20053;-88
2022/12/26 01:19:49;;;;;;;2.40;1.77;;;;;;;14.06;51.87;93478.53;4954865;28;20503;-89
2022/12/26 01:22:14;;;;;;;2.90;2.08;;;;;;;14.08;51.63;93489.63;4970372;28;20035;-86
2022/12/26 01:24:40;;;;;;;3.22;1.95;;;;;;;14.08;51.67;93486.91;4937898;28;20050;-87
2022/12/26 01:27:05;;;;;;;2.70;2.17;;;;;;;14.06;51.95;93494.09;4947706;28;20035;-89
2022/12/26 01:29:31;;;;;;;2.30;1.65;;;;;;;14.07;51.65;93495.59;4977377;28;20606;-89
2022/12/26 01:31:56;;;;;;;3.30;1.92;;;;;;;14.06;51.85;93489.41;4950794;28;20035;-88
2022/12/26 01:34:21;;;;;;;3.60;1.90;;;;;;;14.05;51.72;93487.91;4974981;28;20050;-87
2022/12/26 01:36:47;;;;;;;2.15;1.65;;;;;;;14.11;51.60;93498.06;4950983;28;20047;-89
2022/12/26 01:39:12;;;;;;;3.08;2.22;;;;;;;14.08;51.89;93489.63;4941302;28;20050;-88
2022/12/26 01:41:38;;;;;;;2.10;1.60;;;;;;;14.11;51.69;93500.78;4970125;28;20105;-90
2022/12/26 01:44:06;;;;;;;2.33;1.80;;;;;;;14.08;51.80;93500.50;4950273;28;20046;-87
2022/12/26 01:46:37;;;;;;;4.13;2.38;;;;;;;14.11;51.98;93503.50;4999780;28;20507;-88
2022/12/26 01:49:20;;;;;;;2.05;1.85;;;;;;;14.13;51.89;93501.78;4953924;28;20126;-87
2022/12/26 01:51:48;;;;;;;1.90;1.60;;;;;;;14.06;51.65;93507.69;4969956;28;20046;-87
2022/12/26 01:54:14;;;;;;;1.80;1.70;;;;;;;14.07;51.86;93509.16;4953703;28;20046;-86
2022/12/26 01:56:40;;;;;;;2.42;1.90;;;;;;;14.05;51.79;93500.75;4950737;28;20094;-89
2022/12/26 01:59:11;;;;;;;2.33;1.92;;;;;;;14.08;51.91;93513.34;4955458;28;20053;-86
2022/12/26 02:01:37;;;;;;;1.92;1.73;;;;;;;14.08;51.75;93508.66;4950475;28;20607;-89
2022/12/26 02:06:48;;;;;;;2.15;1.83;;;;;;;14.05;51.74;93515.09;4992937;28;20073;-87
2022/12/26 02:09:14;;;;;;;3.05;1.70;;;;;;;14.10;51.89;93515.59;4968902;28;20035;-88
2022/12/26 02:11:42;;;;;;;3.67;1.58;;;;;;;14.07;52.08;93511.91;4936436;28;20047;-88
2022/12/26 02:14:07;;;;;;;3.10;2.03;;;;;;;14.06;51.66;93496.81;4969020;28;20081;-89
2022/12/26 02:16:33;;;;;;;1.92;1.70;;;;;;;14.06;51.87;93504.97;4933450;29;20328;-90
2022/12/26 02:18:59;;;;;;;1.92;1.60;;;;;;;14.07;51.55;93501.75;4940228;28;20419;-89
2022/12/26 02:21:56;;;;;;;2.30;1.80;;;;;;;14.07;51.69;93490.88;4953560;28;20046;-88
2022/12/26 02:25:13;;;;;;;2.17;1.90;;;;;;;14.10;51.99;93491.88;4949971;28;20489;-89
2022/12/26 02:28:03;;;;;;;2.40;1.88;;;;;;;14.10;51.94;93491.13;4932196;29;20059;-86
2022/12/26 02:30:51;;;;;;;2.97;1.77;;;;;;;14.07;51.84;93482.72;4927123;29;20380;-88
2022/12/26 02:33:30;;;;;;;2.80;2.15;;;;;;;14.06;51.70;93504.97;4919817;29;20502;-87
2022/12/26 02:36:16;;;;;;;1.95;1.65;;;;;;;14.08;51.90;93500.50;4932447;29;20205;-85
2022/12/26 02:38:52;;;;;;;3.17;1.90;;;;;;;14.05;51.89;93501.50;4916889;29;20047;-89
2022/12/26 02:41:47;;;;;;;2.47;2.08;;;;;;;14.05;51.81;93493.34;4947867;28;20508;-89
2022/12/26 02:47:27;;;;;;;2.10;1.50;;;;;;;14.04;52.04;93496.53;4937126;29;20085;-87
2022/12/26 03:17:18;;;;;;;2.45;1.58;;;;;;;14.01;52.03;93500.22;4968431;28;20524;-89
2022/12/26 03:18:14;;;;;;;2.30;1.80;;;;;;;14.02;51.98;93501.72;4953995;28;20042;-87
2022/12/26 03:20:39;;;;;;;2.30;1.88;;;;;;;14.03;51.43;93506.66;4952224;28;20543;-88
2022/12/26 03:23:10;;;;;;;2.13;1.67;;;;;;;14.04;51.71;93497.28;4948975;28;20046;-86
2022/12/26 03:28:40;;;;;;;3.05;2.10;;;;;;;14.02;51.89;93507.88;4953002;28;20383;-87
2022/12/26 03:31:08;;;;;;;2.13;1.70;;;;;;;14.03;51.94;93501.22;4967717;28;20039;-88
2022/12/26 03:36:35;;;;;;;2.40;1.80;;;;;;;14.05;51.82;93495.31;4967597;28;20543;-88
2022/12/26 04:19:33;;;;;;;2.45;1.58;;;;;;;14.04;51.60;93488.38;4953746;28;20042;-89
2022/12/26 04:44:44;;;;;;;2.35;1.70;;;;;;;14.00;51.55;93477.72;4957426;28;20097;-88
2022/12/26 04:47:09;;;;;;;2.50;1.65;;;;;;;14.02;51.42;93466.38;4952467;28;20473;-87
2022/12/26 04:52:53;;;;;;;1.90;1.70;;;;;;;14.00;51.68;93475.00;4970687;28;20042;-89
2022/12/26 04:55:13;;;;;;;2.60;1.77;;;;;;;14.03;51.73;93484.19;4970965;28;20035;-87
2022/12/26 04:57:39;;;;;;;2.17;1.75;;;;;;;13.97;51.43;93473.25;4936462;29;20046;-88
2022/12/26 05:00:05;;;;;;;3.78;1.85;;;;;;;14.00;51.67;93474.25;4970635;28;20039;-86
2022/12/26 05:10:42;;;;;;;3.03;2.10;;;;;;;14.04;51.58;93475.53;4978314;28;20514;-88
2022/12/26 05:13:07;;;;;;;2.58;1.83;;;;;;;14.01;51.35;93470.31;4953678;28;20035;-86
2022/12/26 05:28:40;;;;;;;2.63;1.83;;;;;;;14.02;51.60;93467.13;4951773;28;20043;-86
2022/12/26 05:29:14;;;;;;;2.92;1.98;;;;;;;13.99;51.95;93470.78;4969383;28;20050;-85
2022/12/26 05:31:40;;;;;;;2.85;1.67;;;;;;;14.01;51.56;93470.31;4954418;28;20043;-88
2022/12/26 05:34:11;;;;;;;2.70;1.90;;;;;;;14.02;51.28;93469.09;4951431;28;20484;-86
2022/12/26 05:36:43;;;;;;;2.30;1.67;;;;;;;14.02;51.67;93472.56;4979834;28;20046;-91
2022/12/26 05:39:08;;;;;;;2.42;1.50;;;;;;;14.03;51.62;93462.44;4950838;28;20035;-86
2022/12/26 05:41:34;;;;;;;2.15;1.80;;;;;;;14.01;51.70;93470.31;4968750;28;20530;-87
2022/12/26 05:44:00;;;;;;;3.10;1.60;;;;;;;14.00;51.53;93472.28;4951138;28;20058;-85
2022/12/26 05:46:25;;;;;;;2.63;1.85;;;;;;;14.01;51.48;93473.78;4978154;28;20042;-89
2022/12/26 05:48:50;;;;;;;2.40;1.70;;;;;;;14.02;51.74;93482.69;4951235;28;20070;-86
2022/12/26 05:51:16;;;;;;;2.65;1.90;;;;;;;14.02;51.55;93478.00;4969041;28;20050;-88
2022/12/26 05:53:41;;;;;;;3.03;1.60;;;;;;;13.99;51.64;93484.38;4937969;28;20039;-88
2022/12/26 05:56:13;;;;;;;2.72;1.90;;;;;;;14.00;51.57;93485.88;4950396;28;20096;-86
2022/12/26 05:58:39;;;;;;;1.83;1.55;;;;;;;13.98;51.36;93493.75;4969654;28;20137;-89
2022/12/26 06:01:09;;;;;;;2.60;1.70;;;;;;;13.97;51.62;93494.97;4949522;28;20513;-87
2022/12/26 06:03:35;;;;;;;2.10;1.60;;;;;;;13.96;51.73;93492.75;4970519;28;20105;-87
2022/12/26 06:06:00;;;;;;;2.40;1.50;;;;;;;13.99;51.46;93492.53;4950055;28;20047;-89
2022/12/26 06:08:25;;;;;;;2.13;1.80;;;;;;;14.00;51.52;93499.47;4969803;28;20043;-87
2022/12/26 06:10:51;;;;;;;2.20;1.50;;;;;;;13.99;51.64;93491.78;4950362;28;20238;-89
2022/12/26 06:13:16;;;;;;;2.67;1.80;;;;;;;14.04;51.50;93499.25;4934898;28;20066;-87
2022/12/26 06:15:41;;;;;;;2.60;1.73;;;;;;;14.03;51.65;93495.03;4936056;28;20493;-86
2022/12/26 06:18:07;;;;;;;2.00;1.67;;;;;;;14.03;51.72;93487.63;4969006;28;20047;-87
2022/12/26 06:20:32;;;;;;;1.95;1.55;;;;;;;14.03;51.23;93478.75;4953108;28;20090;-88
2022/12/26 06:22:58;;;;;;;2.97;1.55;;;;;;;14.02;51.27;93479.97;4969085;28;20042;-87
2022/12/26 06:25:23;;;;;;;2.05;1.60;;;;;;;14.02;51.48;93485.41;4952422;28;20440;-88
2022/12/26 06:27:48;;;;;;;2.17;1.65;;;;;;;13.98;51.46;93480.16;4953289;28;20055;-89
2022/12/26 06:30:14;;;;;;;2.55;1.70;;;;;;;13.99;51.37;93492.53;4953246;28;20046;-88
2022/12/26 06:32:39;;;;;;;2.67;1.70;;;;;;;13.96;51.77;93482.63;4949767;28;20044;-88
2022/12/26 06:35:05;;;;;;;2.17;1.40;;;;;;;13.96;51.71;93484.59;4933266;28;20148;-89
2022/12/26 06:37:32;;;;;;;2.15;1.95;;;;;;;14.00;51.27;93490.56;4951935;28;20448;-89
2022/12/26 06:39:57;;;;;;;2.45;1.80;;;;;;;14.01;51.54;93494.78;4970079;28;20129;-89
2022/12/26 06:42:23;;;;;;;1.88;1.60;;;;;;;14.00;51.49;93496.00;4951676;28;20103;-90
2022/12/26 06:44:48;;;;;;;3.55;1.80;;;;;;;14.01;51.38;93492.06;4969544;28;20031;-86
2022/12/26 06:47:13;;;;;;;3.22;2.00;;;;;;;14.00;51.42;93496.00;4952520;28;20097;-87
2022/12/26 06:49:39;;;;;;;2.35;1.85;;;;;;;13.98;51.36;93495.72;4934033;29;20046;-89
2022/12/26 06:52:04;;;;;;;2.10;1.70;;;;;;;14.00;51.34;93490.56;4972221;28;20508;-86
2022/12/26 06:54:30;;;;;;;2.33;1.70;;;;;;;13.99;51.55;93494.50;4952975;28;20054;-87
2022/12/26 06:56:58;;;;;;;2.17;1.85;;;;;;;13.98;51.64;93495.72;4952319;28;20112;-88
2022/12/26 06:59:23;;;;;;;2.80;1.80;;;;;;;13.96;51.56;93504.38;4968753;28;20058;-89
2022/12/26 07:01:49;;;;;;;2.17;1.98;;;;;;;14.00;51.52;93502.19;4951779;28;20055;-89
2022/12/26 07:04:14;;;;;;;2.85;2.13;;;;;;;13.97;51.73;93499.69;4948787;28;20501;-88
2022/12/26 07:06:39;;;;;;;2.83;1.70;;;;;;;13.97;51.88;93507.81;4959590;28;20109;-86
2022/12/26 07:09:11;;;;;;;2.22;1.77;;;;;;;13.95;51.37;93511.03;4981854;28;20066;-89
2022/12/26 07:11:37;;;;;;;1.98;1.42;;;;;;;13.97;51.22;93494.97;4948788;28;20062;-89
2022/12/26 07:14:03;;;;;;;1.85;1.52;;;;;;;13.99;51.60;93502.66;4950411;28;20038;-86
2022/12/26 07:16:29;;;;;;;1.95;1.52;;;;;;;13.95;51.42;93507.56;4950028;28;20043;-90
2022/12/26 07:18:55;;;;;;;2.28;1.70;;;;;;;13.99;51.64;93499.94;4943495;28;20035;-89
2022/12/26 07:21:20;;;;;;;2.05;1.73;;;;;;;13.99;51.43;93497.97;4950372;28;20481;-90
2022/12/26 07:23:46;;;;;;;2.83;1.73;;;;;;;13.98;51.69;93504.63;4952460;28;20034;-88
2022/12/26 07:26:11;;;;;;;2.45;1.75;;;;;;;13.96;51.32;93503.63;4938039;28;20028;-87
2022/12/26 07:28:36;;;;;;;2.65;1.83;;;;;;;13.97;51.09;93505.09;4960942;28;20047;-89
2022/12/26 07:31:03;;;;;;;2.63;1.73;;;;;;;13.97;51.34;93507.81;4936105;28;20039;-86
2022/12/26 07:33:29;;;;;;;2.90;1.88;;;;;;;13.98;51.59;93509.31;4935479;28;20568;-89
2022/12/26 07:35:58;;;;;;;2.60;1.83;;;;;;;13.97;51.14;93516.72;4935453;28;20093;-89
2022/12/26 07:38:24;;;;;;;2.15;1.75;;;;;;;13.97;51.41;93519.44;4952393;28;20042;-89
2022/12/26 07:40:49;;;;;;;2.60;1.98;;;;;;;14.03;51.30;93514.06;4950023;28;20102;-88
2022/12/26 07:43:14;;;;;;;2.40;1.77;;;;;;;14.02;51.31;93509.84;4966838;28;20050;-88
2022/12/26 07:45:40;;;;;;;2.22;1.70;;;;;;;13.98;51.01;93520.94;4934709;28;20094;-89
2022/12/26 07:48:05;;;;;;;2.38;1.92;;;;;;;13.97;51.29;93521.41;4967429;28;20046;-87
2022/12/26 07:50:31;;;;;;;2.20;1.52;;;;;;;13.96;51.22;93528.81;4952655;28;20038;-89
2022/12/26 07:52:58;;;;;;;2.60;1.50;;;;;;;13.98;51.41;93531.81;4967622;28;20042;-88
2022/12/26 07:55:23;;;;;;;1.63;1.52;;;;;;;13.98;51.19;93539.22;4951358;28;20047;-89
2022/12/26 07:57:50;;;;;;;2.85;1.83;;;;;;;14.02;50.98;93542.47;4933581;29;20564;-89
2022/12/26 08:00:18;;;;;;;2.20;1.98;;;;;;;14.04;51.10;93540.03;4932781;28;20039;-88
2022/12/26 08:02:43;;;;;;;1.92;1.73;;;;;;;14.04;51.21;93543.50;4931145;28;20124;-88
2022/12/26 08:05:08;;;;;;;2.38;1.73;;;;;;;14.05;51.11;93542.28;4948340;28;20460;-88
2022/12/26 08:07:34;;;;;;;2.45;1.85;;;;;;;14.11;51.09;93541.56;4948869;28;20047;-86
2022/12/26 08:09:59;;;;;;;2.13;1.55;;;;;;;14.05;51.37;93539.56;4968596;28;20039;-87
2022/12/26 08:12:25;;;;;;;1.63;1.40;;;;;;;14.08;51.03;93526.94;4939740;28;20036;-87
2022/12/26 08:14:51;;;;;;;2.53;1.98;;;;;;;14.05;50.97;93531.41;4964186;28;20065;-88
2022/12/26 08:17:16;;;;;;;2.55;1.83;;;;;;;14.06;51.20;93519.31;4949502;28;20051;-86
2022/12/26 08:19:42;;;;;;;2.63;2.00;;;;;;;14.06;51.41;93529.44;4951452;28;20493;-89
2022/12/26 08:22:07;;;;;;;2.20;1.92;;;;;;;14.04;51.24;93526.44;4932512;28;20047;-87
2022/12/26 08:24:33;;;;;;;2.03;1.50;;;;;;;14.06;51.30;93527.44;4944629;28;20035;-88
2022/12/26 08:26:58;;;;;;;1.77;1.50;;;;;;;14.06;51.20;93530.16;4948548;29;20044;-88
2022/12/26 08:29:23;;;;;;;2.42;1.77;;;;;;;14.08;51.29;93537.81;4966689;28;20523;-89
2022/12/26 08:31:49;;;;;;;2.53;1.80;;;;;;;14.07;51.28;93534.34;4951890;28;20035;-89
2022/12/26 08:34:14;;;;;;;2.08;1.75;;;;;;;14.04;51.48;93534.59;4947652;28;20145;-87
2022/12/26 08:36:40;;;;;;;2.45;1.50;;;;;;;14.11;51.11;93545.03;4961022;28;20043;-89
2022/12/26 08:39:06;;;;;;;2.88;1.80;;;;;;;14.10;51.36;93540.81;4951494;28;20047;-89
2022/12/26 08:41:31;;;;;;;2.80;1.83;;;;;;;14.11;51.12;93531.44;4953736;28;20045;-87
2022/12/26 08:43:57;;;;;;;2.72;1.77;;;;;;;14.08;51.03;93518.78;4935395;29;20039;-89
2022/12/26 08:46:22;;;;;;;2.53;1.80;;;;;;;14.14;51.04;93527.00;4986206;28;20432;-88
2022/12/26 08:48:48;;;;;;;2.40;1.95;;;;;;;14.07;51.19;93528.91;4952089;29;20098;-90
2022/12/26 08:51:15;;;;;;;2.22;1.80;;;;;;;14.14;51.25;93529.72;4936181;28;20039;-88
2022/12/26 08:53:41;;;;;;;2.33;1.83;;;;;;;14.14;51.09;93529.72;4951956;28;20047;-89
2022/12/26 08:56:07;;;;;;;2.05;1.65;;;;;;;14.11;51.14;93536.13;4959889;28;20055;-87
2022/12/26 08:58:32;;;;;;;2.60;1.75;;;;;;;14.12;51.14;93537.63;4955772;28;20045;-88
2022/12/26 09:01:10;;;;;;;2.30;1.38;;;;;;;14.13;51.24;93537.13;4952195;28;20126;-90
2022/12/26 09:03:35;;;;;;;2.03;1.70;;;;;;;14.12;50.99;93535.63;4970617;28;20117;-89
2022/12/26 09:06:00;;;;;;;2.30;1.77;;;;;;;14.14;50.98;93535.91;4935791;29;20495;-89
2022/12/26 09:08:28;;;;;;;2.97;1.77;;;;;;;14.14;51.19;93540.59;4953741;28;20471;-87
2022/12/26 09:10:54;;;;;;;2.83;1.80;;;;;;;14.17;51.29;93542.38;4969599;28;20117;-87
2022/12/26 09:13:20;;;;;;;1.60;1.50;;;;;;;14.16;51.21;93557.94;4968811;28;20081;-87
2022/12/26 09:15:46;;;;;;;2.72;1.95;;;;;;;14.16;51.30;93547.06;4969839;28;20236;-86
2022/12/26 09:18:11;;;;;;;2.45;1.80;;;;;;;14.15;51.14;93559.16;4953572;28;20054;-88
2022/12/26 09:20:37;;;;;;;2.35;1.80;;;;;;;14.17;51.10;93555.97;4953097;28;20042;-88
2022/12/26 09:23:02;;;;;;;2.03;1.77;;;;;;;14.21;51.10;93557.25;4954261;28;20330;-88
2022/12/26 09:25:28;;;;;;;1.77;1.38;;;;;;;14.24;50.87;93560.97;4953845;28;20031;-89
2022/12/26 09:27:53;;;;;;;2.10;1.58;;;;;;;14.29;50.88;93563.72;4971293;28;20036;-89
2022/12/26 09:30:19;;;;;;;4.32;2.00;;;;;;;14.26;50.83;93563.97;4935506;28;20043;-92
2022/12/26 09:32:45;;;;;;;2.05;1.50;;;;;;;14.27;50.59;93568.19;4953947;28;20515;-87
2022/12/26 09:35:10;;;;;;;4.68;1.88;;;;;;;14.22;50.78;93569.63;4953573;28;20046;-89
2022/12/26 09:37:36;;;;;;;2.10;1.90;;;;;;;14.21;50.69;93576.28;4954521;28;20059;-87
2022/12/26 09:40:03;;;;;;;6.13;1.65;;;;;;;14.24;50.91;93571.84;4950869;28;20051;-89
2022/12/26 09:42:50;;;;;;;3.83;1.48;;;;;;;14.27;51.22;93560.03;4986135;28;20497;-89
2022/12/26 09:45:17;;;;;;;2.53;1.90;;;;;;;14.23;51.08;93562.94;4967246;28;20556;-89
2022/12/26 09:47:45;;;;;;;3.08;1.58;;;;;;;14.22;50.92;93555.28;4951359;28;20528;-89
2022/12/26 09:50:34;;;;;;;3.45;1.48;;;;;;;14.23;50.93;93551.31;4991549;28;20043;-90
2022/12/26 09:53:03;;;;;;;3.78;2.08;;;;;;;14.27;50.60;93549.91;4950623;28;20229;-90
2022/12/26 09:55:58;;;;;;;2.50;1.83;;;;;;;14.25;50.97;93538.75;4965576;28;20046;-88
2022/12/26 09:58:28;;;;;;;2.60;1.70;;;;;;;14.24;50.83;93529.09;4953640;28;20078;-89
2022/12/26 10:00:59;;;;;;;2.45;1.85;;;;;;;14.20;50.97;93531.28;4950846;28;20130;-91
2022/12/26 10:03:24;;;;;;;2.92;1.95;;;;;;;14.20;50.84;93514.22;4952298;28;20058;-87
2022/12/26 10:06:11;;;;;;;2.60;1.63;;;;;;;14.20;51.13;93506.81;4953529;28;20047;-88
2022/12/26 10:08:51;;;;;;;1.70;1.40;;;;;;;14.21;51.17;93508.31;4969720;28;20051;-88
2022/12/26 10:11:39;;;;;;;2.67;1.73;;;;;;;14.22;50.71;93511.78;4953476;28;20049;-88
2022/12/26 10:14:10;;;;;;;2.33;1.60;;;;;;;14.21;50.98;93510.28;4953838;28;20054;-90
2022/12/26 10:16:44;;;;;;;;;;;;;;;14.26;50.88;93510.34;4970808;28;20191;-89
2022/12/26 10:19:27;;;;;;;2.80;1.85;;;;;;;14.23;50.84;93510.53;4969000;28;19922;-88
2022/12/26 10:22:20;;;;;;;2.85;1.80;;;;;;;14.23;50.87;93522.16;4954605;28;20138;-87
2022/12/26 10:24:45;;;;;;;2.75;2.03;;;;;;;14.23;51.51;93519.44;4969108;28;20512;-89
2022/12/26 10:27:13;;;;;;;2.00;1.60;;;;;;;14.21;51.25;93516.47;4935552;28;20093;-89
2022/12/26 10:29:46;;;;;;;2.58;1.80;;;;;;;14.20;50.98;93516.94;4950832;28;20135;-89
2022/12/26 10:32:14;;;;;;;2.85;1.65;;;;;;;14.21;51.19;93508.31;4952280;28;20158;-90
2022/12/26 10:34:44;;;;;;;2.58;1.63;;;;;;;14.19;51.41;93507.28;4934238;29;20567;-90
2022/12/26 10:37:26;;;;;;;3.70;1.50;;;;;;;14.20;51.25;93504.09;4981792;28;20042;-90
2022/12/26 10:40:04;;;;;;;1.65;1.52;;;;;;;14.21;51.20;93510.28;4953320;28;20181;-91
2022/12/26 10:42:37;;;;;;;2.08;1.55;;;;;;;14.23;50.95;93505.09;4949998;28;20126;-89
2022/12/26 10:45:16;;;;;;;3.88;1.83;;;;;;;14.23;51.16;93494.97;4969667;28;20142;-89
2022/12/26 10:47:43;;;;;;;3.78;1.77;;;;;;;14.22;51.20;93492.75;4945140;28;20053;-87
2022/12/26 10:50:16;;;;;;;9.23;1.95;;;;;;;14.24;51.03;93501.91;4949666;28;20036;-87
2022/12/26 10:52:41;;;;;;;2.05;1.63;;;;;;;14.22;50.99;93498.19;4968693;28;20449;-89
2022/12/26 10:55:15;;;;;;;1.52;1.42;;;;;;;14.23;51.20;93499.66;4946786;28;20039;-87
2022/12/26 10:57:41;;;;;;;4.07;2.10;;;;;;;14.27;50.73;93492.06;4953264;28;20034;-87
2022/12/26 11:00:17;;;;;;;2.58;1.75;;;;;;;14.24;51.34;93490.28;4952724;28;20060;-89
2022/12/26 11:02:42;;;;;;;2.70;2.00;;;;;;;14.23;51.11;93494.97;4949358;28;20457;-88
2022/12/26 11:05:12;;;;;;;2.67;1.80;;;;;;;14.25;51.08;93489.81;4945728;28;20094;-88
2022/12/26 11:07:53;;;;;;;2.90;1.73;;;;;;;14.27;51.01;93492.06;4952578;28;20130;-87
2022/12/26 11:10:23;;;;;;;2.30;1.58;;;;;;;14.27;51.00;93481.91;4949065;28;20070;-89
2022/12/26 11:12:58;;;;;;;3.90;1.85;;;;;;;14.25;51.24;93484.38;4968991;28;20090;-89
2022/12/26 11:15:39;;;;;;;1.95;1.70;;;;;;;14.28;51.12;93477.97;4950923;28;20039;-89
2022/12/26 11:18:15;;;;;;;1.98;1.55;;;;;;;14.26;50.81;93475.00;4952011;28;20039;-89
2022/12/26 11:20:41;;;;;;;4.38;1.88;;;;;;;14.26;51.04;93479.69;4953423;28;20132;-90
2022/12/26 11:23:24;;;;;;;2.47;2.08;;;;;;;14.29;51.09;93471.28;4948454;28;20545;-86
2022/12/26 11:25:51;;;;;;;2.70;1.90;;;;;;;14.28;51.19;93482.66;4952671;28;20047;-88
2022/12/26 11:28:24;;;;;;;2.70;1.75;;;;;;;14.26;51.21;93483.16;4951468;28;20034;-91
2022/12/26 11:30:50;;;;;;;2.38;1.90;;;;;;;14.27;50.99;93487.34;4949324;28;20592;-86
2022/12/26 11:33:22;;;;;;;2.90;1.65;;;;;;;14.24;50.68;93480.16;4948976;28;20054;-89
2022/12/26 11:35:50;;;;;;;3.10;1.63;;;;;;;14.24;51.18;93480.16;4937535;28;20085;-87
2022/12/26 11:38:33;;;;;;;1.88;1.58;;;;;;;14.26;51.13;93474.25;4935601;28;20360;-88
2022/12/26 11:43:56;;;;;;;2.65;1.77;;;;;;;14.23;51.21;93465.06;4949814;28;20050;-87
2022/12/26 11:46:21;;;;;;;1.98;1.67;;;;;;;14.23;51.48;93459.63;4967658;28;20038;-86
2022/12/26 11:48:52;;;;;;;2.35;1.80;;;;;;;14.25;51.19;93459.16;4933209;29;20157;-87
2022/12/26 11:51:32;;;;;;;2.67;1.90;;;;;;;14.26;50.96;93453.25;4958774;28;20035;-89
2022/12/26 11:54:23;;;;;;;2.70;1.83;;;;;;;14.25;51.09;93456.44;4951680;28;20043;-89
2022/12/26 11:56:48;;;;;;;1.85;1.40;;;;;;;14.28;51.28;93452.75;4951757;28;20035;-89
2022/12/26 11:59:18;;;;;;;2.13;1.70;;;;;;;14.25;51.09;93451.75;4967553;28;20560;-88
2022/12/26 12:01:44;;;;;;;2.63;1.65;;;;;;;14.24;51.23;93435.91;4949206;28;20048;-90
2022/12/26 12:04:09;;;;;;;2.35;1.80;;;;;;;14.25;51.10;93440.88;4946496;28;20042;-90
2022/12/26 12:06:56;;;;;;;2.58;1.80;;;;;;;14.25;51.24;93435.44;4932771;29;20065;-89
2022/12/26 12:09:31;;;;;;;2.30;1.90;;;;;;;14.24;51.25;93436.66;4966538;28;20375;-89
2022/12/26 12:12:17;;;;;;;2.10;1.85;;;;;;;14.26;51.14;93423.31;4968853;28;20031;-88
2022/12/26 12:15:11;;;;;;;3.05;1.83;;;;;;;14.27;51.08;93421.34;4968282;28;20054;-87
2022/12/26 12:17:46;;;;;;;2.20;1.70;;;;;;;14.27;51.04;93426.78;4956965;28;20057;-90
2022/12/26 12:20:30;;;;;;;2.75;1.83;;;;;;;14.25;51.08;93435.44;4972362;28;20055;-89
2022/12/26 12:23:03;;;;;;;2.10;1.70;;;;;;;14.25;51.31;93442.84;4971583;28;20057;-89
2022/12/26 12:25:38;;;;;;;2.25;1.63;;;;;;;14.24;51.26;93438.63;4972234;28;20114;-89
2022/12/26 12:28:16;;;;;;;5.03;1.80;;;;;;;14.25;51.24;93437.41;4971677;28;20125;-88
2022/12/26 12:30:47;;;;;;;2.08;1.52;;;;;;;14.27;50.82;93418.63;4971598;28;20457;-88
2022/12/26 12:33:25;;;;;;;2.33;1.45;;;;;;;14.29;51.37;93427.06;4955368;28;20408;-90
2022/12/26 12:36:14;;;;;;;2.80;1.52;;;;;;;14.30;50.86;93442.88;4952992;28;20043;-89
2022/12/26 12:39:06;;;;;;;2.60;1.63;;;;;;;14.29;51.07;93451.53;4964406;28;20106;-90
2022/12/26 12:41:31;;;;;;;2.25;1.60;;;;;;;14.30;50.91;93448.31;4955422;28;20081;-91
2022/12/26 12:44:04;;;;;;;3.53;2.05;;;;;;;14.29;51.25;93441.38;4972855;28;20572;-89
2022/12/26 12:46:42;;;;;;;1.88;1.60;;;;;;;14.27;51.25;93440.38;4987521;28;20034;-90
2022/12/26 12:49:12;;;;;;;2.22;1.50;;;;;;;14.24;51.39;93433.94;4953702;28;20501;-88
2022/12/26 12:52:02;;;;;;;2.20;1.80;;;;;;;14.24;51.32;93433.94;4955550;28;20058;-87
2022/12/26 12:55:09;;;;;;;2.40;1.65;;;;;;;14.28;51.33;93437.19;4970789;28;20135;-88
2022/12/26 12:57:42;;;;;;;1.60;1.45;;;;;;;14.26;51.21;93431.47;4954758;28;20031;-91
2022/12/26 13:00:12;;;;;;;2.50;1.63;;;;;;;14.23;51.37;93428.97;4929164;28;20497;-88
2022/12/26 13:02:51;;;;;;;2.50;1.70;;;;;;;14.25;51.31;93421.09;4936274;28;20086;-89
2022/12/26 13:05:29;;;;;;;1.95;1.75;;;;;;;14.27;51.27;93405.03;4969143;28;20051;-89
2022/12/26 13:07:59;;;;;;;2.60;1.50;;;;;;;14.26;51.13;93419.88;4970790;28;20027;-90
2022/12/26 13:10:27;;;;;;;2.20;1.70;;;;;;;14.25;51.37;93413.69;4938920;28;20405;-89
2022/12/26 13:12:53;;;;;;;2.20;1.35;;;;;;;14.26;51.17;93412.47;4952077;28;20046;-88
2022/12/26 13:15:30;;;;;;;2.10;1.50;;;;;;;14.29;51.16;93416.19;4953668;28;20046;-88
2022/12/26 13:17:59;;;;;;;1.92;1.52;;;;;;;14.27;51.84;93421.34;4954888;28;20098;-88
2022/12/26 13:20:38;;;;;;;2.53;1.65;;;;;;;14.27;51.22;93426.78;4953269;28;20046;-89
2022/12/26 13:26:08;;;;;;;1.75;1.65;;;;;;;14.28;51.30;93429.03;4958028;28;20046;-90
2022/12/26 13:28:50;;;;;;;2.92;2.45;;;;;;;14.25;51.26;93416.41;4938391;28;20077;-89
2022/12/26 13:31:16;;;;;;;1.85;1.50;;;;;;;14.25;51.10;93437.41;4952717;28;20039;-88
2022/12/26 13:33:42;;;;;;;3.13;1.70;;;;;;;14.26;51.27;93455.97;4972093;28;20046;-89
2022/12/26 13:36:07;;;;;;;2.38;1.70;;;;;;;14.24;51.04;93461.13;4954010;28;20063;-86
2022/12/26 13:38:54;;;;;;;3.25;1.58;;;;;;;14.24;51.17;93471.25;4970947;28;20039;-89
2022/12/26 13:44:05;;;;;;;2.90;1.73;;;;;;;14.30;51.33;93474.75;4942101;28;20161;-86
2022/12/26 13:46:43;;;;;;;2.25;1.58;;;;;;;14.27;51.42;93478.47;4951104;28;20043;-90
2022/12/26 13:49:35;;;;;;;2.45;1.50;;;;;;;14.27;51.31;93481.16;4967167;28;20089;-87
2022/12/26 13:52:10;;;;;;;1.75;1.50;;;;;;;14.31;51.21;93487.13;4970356;28;20058;-88
2022/12/26 13:54:36;;;;;;;1.60;1.40;;;;;;;14.31;51.32;93498.00;4969753;28;20039;-89
2022/12/26 13:57:20;;;;;;;2.70;2.00;;;;;;;14.32;51.35;93497.50;4970205;28;20051;-89
2022/12/26 14:00:04;;;;;;;2.42;1.80;;;;;;;14.31;51.33;93506.16;4978387;28;20187;-90